Time;durP1;ratioP1;P1;durP2;ratioP2;P2;SDS_P1;SDS_P2;PMS_P1;PMS_P2;Temp;Humidity;BMP_temperature;BMP_pressure;BME280_temperature;BME280_humidity;BME280_pressure;Samples;Min_cycle;Max_cycle;Signal;HPM_P1;HPM_P2
2022/01/08 00:01:09;;;;;;;;;;;6.90;99.90;;;;;;5138602;27;19920;-82
2022/01/08 00:03:35;;;;;;;;;;;6.90;99.90;;;;;;5133006;27;19920;-82
2022/01/08 00:06:01;;;;;;;;;;;6.90;99.90;;;;;;5132442;27;19946;-81
2022/01/08 00:08:26;;;;;;;;;;;6.90;99.90;;;;;;5133068;27;19950;-81
2022/01/08 00:10:53;;;;;;;;;;;6.90;99.90;;;;;;5132782;27;20031;-81
2022/01/08 00:13:19;;;;;;;;;;;6.90;99.90;;;;;;5132958;27;20394;-80
2022/01/08 00:15:45;;;;;;;;;;;6.90;99.90;;;;;;5133063;27;19911;-80
2022/01/08 00:18:10;;;;;;;;;;;7.00;99.90;;;;;;5132167;27;19903;-79
2022/01/08 00:20:36;;;;;;;;;;;7.00;99.90;;;;;;5132977;27;20386;-80
2022/01/08 00:23:02;;;;;;;;;;;7.00;99.90;;;;;;5132168;27;20347;-78
2022/01/08 00:25:27;;;;;;;;;;;7.10;99.90;;;;;;5133099;27;19911;-79
2022/01/08 00:27:53;;;;;;;;;;;7.00;99.90;;;;;;5113716;28;19980;-78
2022/01/08 00:30:19;;;;;;;;;;;7.00;99.90;;;;;;5132718;28;20341;-81
2022/01/08 00:32:44;;;;;;;;;;;7.00;99.90;;;;;;5132536;28;19911;-80
2022/01/08 00:35:11;;;;;;;;;;;7.00;99.90;;;;;;5132058;28;20096;-80
2022/01/08 00:37:39;;;;;;;;;;;7.00;99.90;;;;;;5151733;27;19995;-81
2022/01/08 00:40:06;;;;;;;;;;;7.00;99.90;;;;;;5152896;27;19938;-79
2022/01/08 00:42:32;;;;;;;;;;;7.00;99.90;;;;;;5153417;27;19958;-79
2022/01/08 00:44:57;;;;;;;;;;;7.00;99.90;;;;;;5152765;27;20292;-79
2022/01/08 00:47:23;;;;;;;;;;;7.00;99.90;;;;;;5153034;27;19913;-78
2022/01/08 00:49:48;;;;;;;;;;;7.00;99.90;;;;;;5153220;27;19911;-77
2022/01/08 00:52:14;;;;;;;;;;;7.00;99.90;;;;;;5152961;27;19994;-79
2022/01/08 00:54:40;;;;;;;;;;;7.00;99.90;;;;;;5153731;27;20375;-79
2022/01/08 00:57:05;;;;;;;;;;;7.00;99.90;;;;;;5153183;27;19911;-79
2022/01/08 00:59:31;;;;;;;;;;;7.00;99.90;;;;;;5153901;27;19907;-80
2022/01/08 01:01:57;;;;;;;;;;;7.10;99.90;;;;;;5153165;27;19962;-78
2022/01/08 01:04:22;;;;;;;;;;;7.10;99.90;;;;;;5154199;27;19972;-79
2022/01/08 01:06:48;;;;;;;;;;;7.10;99.90;;;;;;5153883;27;19907;-78
2022/01/08 01:09:14;;;;;;;;;;;7.20;99.90;;;;;;5152916;27;20404;-79
2022/01/08 01:11:40;;;;;;;;;;;7.10;99.90;;;;;;5150794;27;19951;-79
2022/01/08 01:14:05;;;;;;;;;;;7.20;99.90;;;;;;5132674;28;19912;-78
2022/01/08 01:16:31;;;;;;;;;;;7.20;99.90;;;;;;5132896;28;19912;-78
2022/01/08 01:18:59;;;;;;;;;;;7.30;99.90;;;;;;5132432;28;19914;-78
2022/01/08 01:21:24;;;;;;;;;;;7.30;99.90;;;;;;5133042;28;20348;-78
2022/01/08 01:23:51;;;;;;;;;;;7.30;99.90;;;;;;5132749;28;19914;-79
2022/01/08 01:26:21;;;;;;;;;;;7.40;99.90;;;;;;5132317;28;19911;-78
2022/01/08 01:47:14;;;;;;;;;;;7.50;99.90;;;;;;5135928;27;19926;-79
2022/01/08 01:49:40;;;;;;;;;;;7.50;99.90;;;;;;5136134;27;19907;-79
2022/01/08 01:52:07;;;;;;;;;;;7.50;99.90;;;;;;5136021;27;19912;-80
2022/01/08 01:54:33;;;;;;;;;;;7.50;99.90;;;;;;5136320;27;19907;-79
2022/01/08 01:56:59;;;;;;;;;;;7.60;99.90;;;;;;5135649;27;20366;-78
2022/01/08 01:59:28;;;;;;;;;;;7.50;99.90;;;;;;5136403;27;20423;-79
2022/01/08 02:01:54;;;;;;;;;;;7.50;99.90;;;;;;5136147;27;20018;-79
2022/01/08 02:04:19;;;;;;;;;;;7.60;99.90;;;;;;5135220;27;19951;-78
2022/01/08 02:06:48;;;;;;;;;;;7.50;99.90;;;;;;5135401;27;20267;-77
2022/01/08 02:09:14;;;;;;;;;;;7.60;99.90;;;;;;5138787;27;19907;-78
2022/01/08 02:11:59;;;;;;;;;;;7.60;99.90;;;;;;5132793;27;19915;-78
2022/01/08 02:14:26;;;;;;;;;;;7.60;99.90;;;;;;5134391;27;19908;-78
2022/01/08 02:16:52;;;;;;;;;;;7.60;99.90;;;;;;5127651;27;19931;-78
2022/01/08 02:19:17;;;;;;;;;;;7.60;99.90;;;;;;5134919;27;19991;-78
2022/01/08 02:21:50;;;;;;;;;;;7.70;99.90;;;;;;5135843;27;19988;-78
2022/01/08 02:24:16;;;;;;;;;;;7.70;99.90;;;;;;5134608;27;20085;-78
2022/01/08 02:26:41;;;;;;;;;;;7.70;99.90;;;;;;5135497;27;19914;-78
2022/01/08 02:29:25;;;;;;;;;;;7.70;99.90;;;;;;5134882;27;19914;-78
2022/01/08 02:31:58;;;;;;;;;;;7.80;99.90;;;;;;5135730;27;19907;-78
2022/01/08 02:34:26;;;;;;;;;;;7.90;99.90;;;;;;5135102;27;20371;-78
2022/01/08 02:36:52;;;;;;;;;;;7.90;99.90;;;;;;5135468;27;20006;-78
2022/01/08 02:39:18;;;;;;;;;;;8.00;99.90;;;;;;5134499;27;19903;-77
2022/01/08 02:41:43;;;;;;;;;;;8.00;99.90;;;;;;5135203;27;19965;-77
2022/01/08 02:44:10;;;;;;;;;;;8.00;99.90;;;;;;5134369;27;19911;-77
2022/01/08 02:46:37;;;;;;;;;;;8.00;99.90;;;;;;5133969;27;20404;-77
2022/01/08 02:49:03;;;;;;;;;;;8.10;99.90;;;;;;5134311;27;19907;-77
2022/01/08 02:51:31;;;;;;;;;;;8.20;99.90;;;;;;5135253;27;19907;-78
2022/01/08 02:53:56;;;;;;;;;;;8.30;99.90;;;;;;5134663;27;19998;-78
2022/01/08 02:56:22;;;;;;;;;;;8.30;99.90;;;;;;5134406;27;20399;-78
2022/01/08 02:58:47;;;;;;;;;;;8.40;99.90;;;;;;5135245;27;19940;-79
2022/01/08 03:01:13;;;;;;;;;;;8.40;99.90;;;;;;5133848;27;19962;-78
2022/01/08 03:03:39;;;;;;;;;;;8.40;99.90;;;;;;5135093;27;20377;-78
2022/01/08 03:06:04;;;;;;;;;;;8.40;99.90;;;;;;5134010;27;20321;-77
2022/01/08 03:08:30;;;;;;;;;;;8.50;99.90;;;;;;5134920;27;19907;-76
2022/01/08 03:10:55;;;;;;;;;;;8.50;99.90;;;;;;5134577;27;19911;-77
2022/01/08 03:13:21;;;;;;;;;;;8.50;99.90;;;;;;5133983;27;19961;-77
2022/01/08 03:15:46;;;;;;;;;;;8.50;99.90;;;;;;5134605;27;19908;-77
2022/01/08 03:18:12;;;;;;;;;;;8.60;99.90;;;;;;5134012;27;19907;-77
2022/01/08 03:20:46;;;;;;;;;;;8.50;99.90;;;;;;5134510;27;20014;-77
2022/01/08 03:23:15;;;;;;;;;;;8.60;99.90;;;;;;5134089;27;19908;-77
2022/01/08 03:25:41;;;;;;;;;;;8.70;99.90;;;;;;5134436;27;20430;-77
2022/01/08 03:28:07;;;;;;;;;;;8.70;99.90;;;;;;5133711;27;19969;-76
2022/01/08 03:30:34;;;;;;;;;;;8.70;99.90;;;;;;5134592;27;19994;-77
2022/01/08 03:33:00;;;;;;;;;;;8.70;99.90;;;;;;5134429;27;19953;-77
2022/01/08 03:35:25;;;;;;;;;;;8.60;99.90;;;;;;5133494;27;19911;-77
2022/01/08 03:37:51;;;;;;;;;;;8.60;99.90;;;;;;5134149;27;19914;-77
2022/01/08 03:40:17;;;;;;;;;;;8.60;99.90;;;;;;5133334;27;19918;-78
2022/01/08 03:42:42;;;;;;;;;;;8.60;99.90;;;;;;5134533;27;19915;-78
2022/01/08 03:45:08;;;;;;;;;;;8.70;99.90;;;;;;5133424;27;20241;-77
2022/01/08 03:50:28;;;;;;;;;;;8.70;99.90;;;;;;5042116;27;19910;-78
2022/01/08 03:52:54;;;;;;;;;;;8.70;99.90;;;;;;5133771;27;20376;-77
2022/01/08 03:55:19;;;;;;;;;;;8.70;99.90;;;;;;5141297;27;19908;-78
2022/01/08 03:57:45;;;;;;;;;;;8.70;99.90;;;;;;5144975;27;19911;-78
2022/01/08 04:00:11;;;;;;;;;;;8.60;99.90;;;;;;5134916;27;19946;-78
2022/01/08 04:02:37;;;;;;;;;;;8.70;99.90;;;;;;5133374;27;19919;-77
2022/01/08 04:05:02;;;;;;;;;;;8.60;99.90;;;;;;5133904;27;19933;-77
2022/01/08 04:07:28;;;;;;;;;;;8.70;99.90;;;;;;5133349;27;20336;-77
2022/01/08 04:09:54;;;;;;;;;;;8.60;99.90;;;;;;5133724;27;19930;-78
2022/01/08 04:12:30;;;;;;;;;;;8.70;99.90;;;;;;5140154;27;19936;-77
2022/01/08 04:15:05;;;;;;;;;;;8.80;99.90;;;;;;5154318;27;19915;-78
2022/01/08 04:17:31;;;;;;;;;;;8.70;99.90;;;;;;5154011;27;19907;-78
2022/01/08 04:19:56;;;;;;;;;;;8.80;99.90;;;;;;5154096;27;19907;-78
2022/01/08 04:22:23;;;;;;;;;;;8.90;99.90;;;;;;5153292;27;20312;-77
2022/01/08 04:24:49;;;;;;;;;;;8.90;99.90;;;;;;5153963;27;20299;-78
2022/01/08 04:27:15;;;;;;;;;;;9.00;99.90;;;;;;5153535;27;19911;-79
2022/01/08 04:29:41;;;;;;;;;;;9.00;99.90;;;;;;5154136;27;20322;-79
2022/01/08 04:32:07;;;;;;;;;;;9.00;99.90;;;;;;5153810;27;19907;-77
2022/01/08 04:34:32;;;;;;;;;;;9.00;99.90;;;;;;5154323;27;19907;-79
2022/01/08 04:36:58;;;;;;;;;;;9.00;99.90;;;;;;5154259;27;19962;-78
2022/01/08 04:39:24;;;;;;;;;;;9.00;99.90;;;;;;5153386;27;20006;-79
2022/01/08 04:41:49;;;;;;;;;;;8.90;99.90;;;;;;5154063;27;19915;-79
2022/01/08 04:44:15;;;;;;;;;;;8.90;99.90;;;;;;5153422;27;20416;-79
2022/01/08 04:46:41;;;;;;;;;;;9.00;99.90;;;;;;5153968;27;19907;-79
2022/01/08 04:49:07;;;;;;;;;;;9.00;99.90;;;;;;5138341;27;19908;-76
2022/01/08 04:51:32;;;;;;;;;;;9.00;99.90;;;;;;5132583;28;19918;-79
2022/01/08 04:53:58;;;;;;;;;;;8.90;99.90;;;;;;5133307;28;20378;-80
2022/01/08 04:56:23;;;;;;;;;;;9.00;99.90;;;;;;5132191;28;19907;-79
2022/01/08 04:58:49;;;;;;;;;;;8.90;99.90;;;;;;5133441;28;19907;-79
2022/01/08 05:01:17;;;;;;;;;;;8.90;99.90;;;;;;5132439;28;20343;-78
2022/01/08 05:03:42;;;;;;;;;;;8.90;99.90;;;;;;5132858;27;19962;-79
2022/01/08 05:06:08;;;;;;;;;;;9.00;99.90;;;;;;5132989;28;19959;-76
2022/01/08 05:08:34;;;;;;;;;;;9.00;99.90;;;;;;5132483;28;19915;-79
2022/01/08 05:10:59;;;;;;;;;;;9.00;99.90;;;;;;5135945;27;20339;-80
2022/01/08 05:13:25;;;;;;;;;;;9.10;99.90;;;;;;5136328;27;19912;-79
2022/01/08 05:15:50;;;;;;;;;;;9.10;99.90;;;;;;5137259;27;19907;-82
2022/01/08 05:18:16;;;;;;;;;;;9.20;99.90;;;;;;5136151;27;19907;-79
2022/01/08 05:20:46;;;;;;;;;;;9.30;99.90;;;;;;5137072;27;19919;-79
2022/01/08 05:23:11;;;;;;;;;;;9.30;99.90;;;;;;5136070;27;20237;-77
2022/01/08 05:25:37;;;;;;;;;;;9.30;99.90;;;;;;5136612;27;20006;-81
2022/01/08 05:28:03;;;;;;;;;;;9.20;99.90;;;;;;5136362;27;19914;-79
2022/01/08 05:30:29;;;;;;;;;;;9.20;99.90;;;;;;5136389;27;19990;-80
2022/01/08 05:32:55;;;;;;;;;;;9.20;99.90;;;;;;5136911;27;20007;-80
2022/01/08 05:35:21;;;;;;;;;;;9.30;99.90;;;;;;5136062;27;20427;-79
2022/01/08 05:37:47;;;;;;;;;;;9.30;99.90;;;;;;5136631;27;19911;-79
2022/01/08 05:40:13;;;;;;;;;;;9.30;99.90;;;;;;5136150;27;20001;-77
2022/01/08 05:42:39;;;;;;;;;;;9.30;99.90;;;;;;5136289;27;19916;-81
2022/01/08 05:45:05;;;;;;;;;;;9.40;99.90;;;;;;5137068;27;19953;-80
2022/01/08 05:47:32;;;;;;;;;;;9.40;99.90;;;;;;5135827;27;19907;-80
2022/01/08 05:49:58;;;;;;;;;;;9.50;99.90;;;;;;5136210;27;19930;-80
2022/01/08 05:52:24;;;;;;;;;;;9.50;99.90;;;;;;5135539;27;20376;-80
2022/01/08 05:54:49;;;;;;;;;;;9.40;99.90;;;;;;5136414;27;20282;-80
2022/01/08 05:57:15;;;;;;;;;;;9.50;99.90;;;;;;5135489;27;19911;-78
2022/01/08 05:59:41;;;;;;;;;;;9.50;99.90;;;;;;5136087;27;19907;-79
2022/01/08 06:02:09;;;;;;;;;;;9.50;99.90;;;;;;5117818;27;19916;-80
2022/01/08 06:04:35;;;;;;;;;;;9.60;99.90;;;;;;5135259;27;19927;-80
2022/01/08 06:07:00;;;;;;;;;;;9.60;99.90;;;;;;5136129;27;19994;-80
2022/01/08 06:09:26;;;;;;;;;;;9.60;99.90;;;;;;5135314;27;19950;-79
2022/01/08 06:11:52;;;;;;;;;;;9.50;99.90;;;;;;5136502;27;19911;-79
2022/01/08 06:14:17;;;;;;;;;;;9.50;99.90;;;;;;5135289;27;19908;-79
2022/01/08 06:16:43;;;;;;;;;;;9.50;99.90;;;;;;5135840;27;20360;-79
2022/01/08 06:19:09;;;;;;;;;;;9.60;99.90;;;;;;5135990;27;19958;-80
2022/01/08 06:21:36;;;;;;;;;;;9.60;99.90;;;;;;5134984;27;20324;-79
2022/01/08 06:24:02;;;;;;;;;;;9.60;99.90;;;;;;5117408;27;19958;-79
2022/01/08 06:26:27;;;;;;;;;;;9.60;99.90;;;;;;5134638;27;19930;-79
2022/01/08 06:28:53;;;;;;;;;;;9.70;99.90;;;;;;5135233;27;20360;-78
2022/01/08 06:31:19;;;;;;;;;;;9.70;99.90;;;;;;5116400;27;19907;-79
2022/01/08 06:33:45;;;;;;;;;;;9.70;99.90;;;;;;5139072;27;19912;-79
2022/01/08 06:36:11;;;;;;;;;;;9.70;99.90;;;;;;5154206;27;19915;-79
2022/01/08 06:38:37;;;;;;;;;;;9.80;99.90;;;;;;5150728;27;20062;-79
2022/01/08 06:41:02;;;;;;;;;;;9.80;99.90;;;;;;5135756;27;19915;-80
2022/01/08 06:43:28;;;;;;;;;;;9.80;99.90;;;;;;5133804;27;19947;-78
2022/01/08 06:45:53;;;;;;;;;;;9.80;99.90;;;;;;5135362;27;19908;-79
2022/01/08 06:48:19;;;;;;;;;;;9.70;99.90;;;;;;5134658;27;19908;-79
2022/01/08 06:50:44;;;;;;;;;;;9.70;99.90;;;;;;5135392;27;19907;-78
2022/01/08 06:53:10;;;;;;;;;;;9.70;99.90;;;;;;5135326;27;20248;-80
2022/01/08 06:55:36;;;;;;;;;;;9.70;99.90;;;;;;5134250;27;19994;-80
2022/01/08 06:58:02;;;;;;;;;;;9.70;99.90;;;;;;5135204;27;19914;-81
2022/01/08 07:00:27;;;;;;;;;;;9.80;99.90;;;;;;5134317;27;19914;-80
2022/01/08 07:02:53;;;;;;;;;;;9.80;99.90;;;;;;5134973;27;19919;-81
2022/01/08 07:05:19;;;;;;;;;;;9.80;99.90;;;;;;5134526;27;19913;-77
2022/01/08 07:07:44;;;;;;;;;;;9.80;99.90;;;;;;5134889;27;20356;-80
2022/01/08 07:10:10;;;;;;;;;;;9.80;99.90;;;;;;5117223;27;19908;-84
2022/01/08 07:12:35;;;;;;;;;;;9.80;99.90;;;;;;5144442;27;19951;-86
2022/01/08 07:15:01;;;;;;;;;;;9.80;99.90;;;;;;5155977;27;19914;-84
2022/01/08 07:17:27;;;;;;;;;;;9.80;99.90;;;;;;5154707;27;19957;-83
2022/01/08 07:19:52;;;;;;;;;;;9.70;99.90;;;;;;5155690;27;19908;-83
2022/01/08 07:22:18;;;;;;;;;;;9.70;99.90;;;;;;5155152;27;19915;-79
2022/01/08 07:24:44;;;;;;;;;;;9.60;99.90;;;;;;5155112;27;19911;-81
2022/01/08 07:27:09;;;;;;;;;;;9.60;99.90;;;;;;5136635;27;19930;-81
2022/01/08 07:29:35;;;;;;;;;;;9.50;99.90;;;;;;5154450;27;20043;-81
2022/01/08 07:32:00;;;;;;;;;;;9.50;99.90;;;;;;5154961;27;19907;-82
2022/01/08 07:34:26;;;;;;;;;;;9.50;99.90;;;;;;5140106;27;19912;-80
2022/01/08 07:36:52;;;;;;;;;;;9.40;99.90;;;;;;5134213;27;19912;-80
2022/01/08 07:39:17;;;;;;;;;;;9.30;99.90;;;;;;5134750;27;20002;-79
2022/01/08 07:41:43;;;;;;;;;;;9.30;99.90;;;;;;5133269;27;20352;-79
2022/01/08 07:44:08;;;;;;;;;;;9.20;99.90;;;;;;5134543;27;20344;-80
2022/01/08 07:46:34;;;;;;;;;;;9.20;99.90;;;;;;5133666;27;19907;-79
2022/01/08 07:49:00;;;;;;;;;;;9.20;99.90;;;;;;5146897;27;20291;-79
2022/01/08 07:51:25;;;;;;;;;;;9.20;99.90;;;;;;5153964;27;19911;-79
2022/01/08 07:53:51;;;;;;;;;;;9.20;99.90;;;;;;5154945;27;20005;-80
2022/01/08 07:56:16;;;;;;;;;;;9.20;99.90;;;;;;5154947;27;19907;-79
2022/01/08 07:58:42;;;;;;;;;;;9.10;99.90;;;;;;5153820;27;20049;-78
2022/01/08 08:01:07;;;;;;;;;;;9.10;99.90;;;;;;5154658;27;19915;-79
2022/01/08 08:03:33;;;;;;;;;;;9.10;99.90;;;;;;5153454;27;19923;-80
2022/01/08 08:05:59;;;;;;;;;;;9.00;99.90;;;;;;5154525;27;20362;-80
2022/01/08 08:08:24;;;;;;;;;;;9.00;99.90;;;;;;5135252;27;20367;-78
2022/01/08 08:10:50;;;;;;;;;;;9.00;99.90;;;;;;5155035;27;19964;-81
2022/01/08 08:13:17;;;;;;;;;;;9.00;99.90;;;;;;5154664;27;19911;-80
2022/01/08 08:15:42;;;;;;;;;;;8.90;99.90;;;;;;5153920;27;19903;-82
2022/01/08 08:18:11;;;;;;;;;;;8.90;99.90;;;;;;5154087;27;19907;-84
2022/01/08 08:20:36;;;;;;;;;;;8.90;99.90;;;;;;5154520;27;19907;-85
2022/01/08 08:23:02;;;;;;;;;;;8.80;99.90;;;;;;5137342;27;19929;-85
2022/01/08 08:25:28;;;;;;;;;;;8.70;99.90;;;;;;5136193;27;19921;-85
2022/01/08 08:27:54;;;;;;;;;;;8.70;99.90;;;;;;5155468;27;19907;-85
2022/01/08 08:30:21;;;;;;;;;;;8.60;99.90;;;;;;5136687;27;19914;-84
2022/01/08 08:32:47;;;;;;;;;;;8.50;99.90;;;;;;5153578;27;19911;-85
2022/01/08 08:35:13;;;;;;;;;;;8.40;99.90;;;;;;5154230;27;19918;-84
2022/01/08 08:37:40;;;;;;;;;;;8.40;99.90;;;;;;5153468;27;20439;-84
2022/01/08 08:40:07;;;;;;;;;;;8.20;99.90;;;;;;5154043;27;20002;-83
2022/01/08 08:42:33;;;;;;;;;;;8.20;99.90;;;;;;5153018;27;20309;-80
2022/01/08 08:44:58;;;;;;;;;;;8.00;99.90;;;;;;5154087;27;19951;-80
2022/01/08 08:47:24;;;;;;;;;;;8.00;99.90;;;;;;5158154;27;20267;-77
2022/01/08 08:49:49;;;;;;;;;;;7.90;99.90;;;;;;5138740;27;19937;-80
2022/01/08 08:52:15;;;;;;;;;;;7.90;99.90;;;;;;5157102;27;19911;-79
2022/01/08 08:54:42;;;;;;;;;;;7.80;99.90;;;;;;5143440;27;19923;-79
2022/01/08 08:57:08;;;;;;;;;;;7.70;99.90;;;;;;5148663;27;19907;-79
2022/01/08 08:59:36;;;;;;;;;;;7.60;99.90;;;;;;5144389;27;19914;-79
2022/01/08 09:02:01;;;;;;;;;;;7.60;99.90;;;;;;5136799;27;20317;-80
2022/01/08 09:04:27;;;;;;;;;;;7.50;99.90;;;;;;5136846;27;19965;-78
2022/01/08 09:06:53;;;;;;;;;;;7.50;99.90;;;;;;5118767;27;19908;-79
2022/01/08 09:09:18;;;;;;;;;;;7.40;99.90;;;;;;5136990;27;19907;-79
2022/01/08 09:11:44;;;;;;;;;;;7.40;99.90;;;;;;5136463;27;19931;-79
2022/01/08 09:14:10;;;;;;;;;;;7.40;99.90;;;;;;5136988;27;19956;-75
2022/01/08 09:16:36;;;;;;;;;;;7.40;99.90;;;;;;5136384;27;19911;-76
2022/01/08 09:19:02;;;;;;;;;;;7.30;99.90;;;;;;5121560;27;19911;-78
2022/01/08 09:21:28;;;;;;;;;;;7.40;99.90;;;;;;5142910;27;19969;-75
2022/01/08 09:23:53;;;;;;;;;;;7.40;99.90;;;;;;5143230;27;19919;-77
2022/01/08 09:26:19;;;;;;;;;;;7.40;99.90;;;;;;5139361;27;19969;-77
2022/01/08 09:28:45;;;;;;;;;;;7.40;99.90;;;;;;5144537;27;20360;-77
2022/01/08 09:31:11;;;;;;;;;;;7.40;99.90;;;;;;5148281;27;19950;-76
2022/01/08 09:33:36;;;;;;;;;;;7.40;99.90;;;;;;5156705;27;19908;-76
2022/01/08 09:36:02;;;;;;;;;;;7.50;99.90;;;;;;5156635;27;19918;-77
2022/01/08 09:38:28;;;;;;;;;;;7.50;99.90;;;;;;5157167;27;20012;-75
2022/01/08 09:40:53;;;;;;;;;;;7.50;99.90;;;;;;5156913;27;20374;-77
2022/01/08 09:43:19;;;;;;;;;;;7.50;99.90;;;;;;5138761;27;19915;-78
2022/01/08 09:45:45;;;;;;;;;;;7.50;99.90;;;;;;5156319;27;20489;-78
2022/01/08 09:48:10;;;;;;;;;;;7.60;99.90;;;;;;5157617;27;19911;-78
2022/01/08 09:50:36;;;;;;;;;;;7.60;99.90;;;;;;5156172;27;19907;-77
2022/01/08 09:53:01;;;;;;;;;;;7.60;99.90;;;;;;5156880;27;20287;-77
2022/01/08 09:55:28;;;;;;;;;;;7.70;99.90;;;;;;5156411;27;19989;-77
2022/01/08 09:57:55;;;;;;;;;;;7.70;99.90;;;;;;5156411;27;19913;-77
2022/01/08 10:00:20;;;;;;;;;;;7.70;99.90;;;;;;5156849;27;19907;-77
2022/01/08 10:02:46;;;;;;;;;;;7.70;99.90;;;;;;5155746;27;19964;-76
2022/01/08 10:05:14;;;;;;;;;;;7.60;99.90;;;;;;5140108;27;20002;-77
2022/01/08 10:07:40;;;;;;;;;;;7.60;99.90;;;;;;5135350;27;19907;-77
2022/01/08 10:10:14;;;;;;;;;;;7.60;99.90;;;;;;5135934;27;19911;-77
2022/01/08 10:12:46;;;;;;;;;;;7.60;99.90;;;;;;5135247;27;19932;-77
2022/01/08 10:17:58;;;;;;;;;;;7.60;99.90;;;;;;5142335;27;20010;-77
2022/01/08 10:20:46;;;;;;;;;;;7.60;99.90;;;;;;5146350;27;19914;-77
2022/01/08 10:23:12;;;;;;;;;;;7.60;99.90;;;;;;5145427;27;20477;-77
2022/01/08 10:25:56;;;;;;;;;;;7.50;99.90;;;;;;5144698;27;19907;-76
2022/01/08 10:28:38;;;;;;;;;;;7.50;99.90;;;;;;5146345;27;20359;-77
2022/01/08 10:31:11;;;;;;;;;;;7.50;99.90;;;;;;5135493;27;20095;-77
2022/01/08 10:33:37;;;;;;;;;;;7.50;99.90;;;;;;5134362;27;19954;-77
2022/01/08 10:36:03;;;;;;;;;;;7.50;99.90;;;;;;5135459;27;19960;-77
2022/01/08 10:38:30;;;;;;;;;;;7.50;99.90;;;;;;5145805;27;19991;-76
2022/01/08 10:40:56;;;;;;;;;;;7.50;99.90;;;;;;5146384;27;19930;-77
2022/01/08 10:43:26;;;;;;;;;;;7.50;99.90;;;;;;5156787;27;19911;-77
2022/01/08 10:45:52;;;;;;;;;;;7.50;99.90;;;;;;5167807;27;19987;-78
2022/01/08 10:48:31;;;;;;;;;;;7.50;99.90;;;;;;5156680;27;19913;-77
2022/01/08 10:51:14;;;;;;;;;;;7.40;99.90;;;;;;5147810;27;19907;-77
2022/01/08 10:53:58;;;;;;;;;;;7.40;99.90;;;;;;5156030;27;19907;-77
2022/01/08 10:56:34;;;;;;;;;;;7.40;99.90;;;;;;5155620;27;19907;-77
2022/01/08 10:59:01;;;;;;;;;;;7.40;99.90;;;;;;5155558;27;19915;-76
2022/01/08 11:01:47;;;;;;;;;;;7.40;99.90;;;;;;5155700;27;19971;-77
2022/01/08 11:04:14;;;;;;;;;;;7.40;99.90;;;;;;5154215;27;19919;-76
2022/01/08 11:06:49;;;;;;;;;;;7.40;99.90;;;;;;5154791;27;19907;-76
2022/01/08 11:09:14;;;;;;;;;;;7.40;99.90;;;;;;5154820;27;19917;-76
2022/01/08 11:11:41;;;;;;;;;;;7.50;99.90;;;;;;5154187;27;20290;-76
2022/01/08 11:14:08;;;;;;;;;;;7.50;99.90;;;;;;5154874;27;19907;-76
2022/01/08 11:16:37;;;;;;;;;;;7.50;99.90;;;;;;5155124;27;19938;-76
2022/01/08 11:19:03;;;;;;;;;;;7.50;99.90;;;;;;5154971;27;19907;-76
2022/01/08 11:21:29;;;;;;;;;;;7.50;99.90;;;;;;5155321;27;19915;-78
2022/01/08 11:23:57;;;;;;;;;;;7.50;99.90;;;;;;5154501;27;19914;-76
2022/01/08 11:26:23;;;;;;;;;;;7.50;99.90;;;;;;5155531;27;20355;-77
2022/01/08 11:28:49;;;;;;;;;;;7.40;99.90;;;;;;5154369;27;19998;-77
2022/01/08 11:31:15;;;;;;;;;;;7.50;99.90;;;;;;5155166;27;19911;-77
2022/01/08 11:33:44;;;;;;;;;;;7.40;99.90;;;;;;5153840;27;20360;-74
2022/01/08 11:36:11;;;;;;;;;;;7.40;99.90;;;;;;5154936;27;19907;-77
2022/01/08 11:38:36;;;;;;;;;;;7.50;99.90;;;;;;5154465;27;19986;-75
2022/01/08 11:41:02;;;;;;;;;;;7.50;99.90;;;;;;5154510;27;20021;-76
2022/01/08 11:43:28;;;;;;;;;;;7.50;99.90;;;;;;5154726;27;19914;-76
2022/01/08 11:46:01;;;;;;;;;;;7.50;99.90;;;;;;5154048;27;19930;-76
2022/01/08 11:48:36;;;;;;;;;;;7.50;99.90;;;;;;5154912;27;20364;-77
2022/01/08 11:51:03;;;;;;;;;;;7.50;99.90;;;;;;5154207;27;19998;-77
2022/01/08 11:53:32;;;;;;;;;;;7.60;99.90;;;;;;5154763;27;20364;-77
2022/01/08 11:55:59;;;;;;;;;;;7.60;99.90;;;;;;5153798;27;19931;-76
2022/01/08 11:58:30;;;;;;;;;;;7.60;99.90;;;;;;5154615;27;20306;-77
2022/01/08 12:00:56;;;;;;;;;;;7.60;99.90;;;;;;5153783;27;19919;-78
2022/01/08 12:03:22;;;;;;;;;;;7.60;99.90;;;;;;5154164;27;19919;-77
2022/01/08 12:05:48;;;;;;;;;;;7.50;99.90;;;;;;5150198;27;19918;-77
2022/01/08 12:08:16;;;;;;;;;;;7.50;99.90;;;;;;5142019;27;19908;-75
2022/01/08 12:10:56;;;;;;;;;;;7.50;99.90;;;;;;5139680;27;19912;-75
2022/01/08 12:13:40;;;;;;;;;;;7.50;99.90;;;;;;5137841;27;19919;-77
2022/01/08 12:16:26;;;;;;;;;;;7.50;99.90;;;;;;5143677;27;19915;-76
2022/01/08 12:18:52;;;;;;;;;;;7.50;99.90;;;;;;5143579;27;19907;-77
2022/01/08 12:21:35;;;;;;;;;;;7.50;99.90;;;;;;5142888;27;19915;-77
2022/01/08 12:24:30;;;;;;;;;;;7.50;99.90;;;;;;5132317;27;20487;-77
2022/01/08 12:27:02;;;;;;;;;;;7.60;99.90;;;;;;5114679;27;19912;-77
2022/01/08 12:29:34;;;;;;;;;;;7.60;99.90;;;;;;5133349;27;20030;-76
2022/01/08 12:32:40;;;;;;;;;;;7.60;99.90;;;;;;5151662;27;20472;-77
2022/01/08 12:35:26;;;;;;;;;;;7.60;99.90;;;;;;5031308;28;20631;-77
2022/01/08 12:37:56;;;;;;;;;;;7.60;99.90;;;;;;5040289;28;19909;-77
2022/01/08 12:40:32;;;;;;;;;;;7.60;99.90;;;;;;5038097;28;19909;-78
2022/01/08 12:42:58;;;;;;;;;;;7.60;99.90;;;;;;5038146;28;19962;-78
2022/01/08 12:45:29;;;;;;;;;;;7.60;99.90;;;;;;5040324;28;20344;-78
2022/01/08 12:48:05;;;;;;;;;;;7.60;99.90;;;;;;5038375;28;20286;-78
2022/01/08 12:50:43;;;;;;;;;;;7.60;99.90;;;;;;5038879;28;20303;-77
2022/01/08 12:53:11;;;;;;;;;;;7.60;99.90;;;;;;5029643;28;19937;-77
2022/01/08 12:55:37;;;;;;;;;;;7.60;99.90;;;;;;5033401;28;20003;-76
2022/01/08 12:58:11;;;;;;;;;;;7.50;99.90;;;;;;5049872;28;20004;-77
2022/01/08 13:00:51;;;;;;;;;;;7.50;99.90;;;;;;5050225;28;19909;-77
2022/01/08 13:03:37;;;;;;;;;;;7.50;99.90;;;;;;5049348;28;19925;-76
2022/01/08 13:06:12;;;;;;;;;;;7.50;99.90;;;;;;5098155;28;19903;-76
2022/01/08 13:08:38;;;;;;;;;;;7.50;99.90;;;;;;5133089;28;19908;-77
2022/01/08 13:11:05;;;;;;;;;;;7.50;99.90;;;;;;5132120;28;19903;-77
2022/01/08 13:13:40;;;;;;;;;;;7.50;99.90;;;;;;5132700;28;19908;-77
2022/01/08 13:16:19;;;;;;;;;;;7.60;99.90;;;;;;5132400;27;19960;-75
2022/01/08 13:18:52;;;;;;;;;;;7.50;99.90;;;;;;5132495;28;19911;-76
2022/01/08 13:21:18;;;;;;;;;;;7.40;99.90;;;;;;5133183;28;19919;-76
2022/01/08 13:23:45;;;;;;;;;;;7.40;99.90;;;;;;5114119;28;19907;-76
2022/01/08 13:26:11;;;;;;;;;;;7.50;99.90;;;;;;5132535;28;19914;-76
2022/01/08 13:28:37;;;;;;;;;;;7.50;99.90;;;;;;5132950;28;19907;-77
2022/01/08 13:31:03;;;;;;;;;;;7.50;99.90;;;;;;5133088;27;19907;-77
2022/01/08 13:33:28;;;;;;;;;;;7.50;99.90;;;;;;5136656;27;19914;-77
2022/01/08 13:35:58;;;;;;;;;;;7.50;99.90;;;;;;5135640;27;19907;-76
2022/01/08 13:38:33;;;;;;;;;;;7.40;99.90;;;;;;5136467;27;19914;-76
2022/01/08 13:41:09;;;;;;;;;;;7.40;99.90;;;;;;5146765;27;19915;-76
2022/01/08 13:43:53;;;;;;;;;;;7.40;99.90;;;;;;5125583;27;19943;-77
2022/01/08 13:46:19;;;;;;;;;;;7.40;99.90;;;;;;5126131;27;20324;-76
2022/01/08 13:48:45;;;;;;;;;;;7.30;99.90;;;;;;5145998;27;19995;-75
2022/01/08 13:51:10;;;;;;;;;;;7.20;99.90;;;;;;5138116;27;19931;-77
2022/01/08 13:53:36;;;;;;;;;;;7.20;99.90;;;;;;5149727;27;20288;-77
2022/01/08 13:56:02;;;;;;;;;;;7.20;99.90;;;;;;5148445;27;19907;-77
2022/01/08 13:58:28;;;;;;;;;;;7.10;99.90;;;;;;5145243;27;19912;-77
2022/01/08 14:01:03;;;;;;;;;;;7.10;99.90;;;;;;5150334;27;19911;-75
2022/01/08 14:03:30;;;;;;;;;;;7.10;99.90;;;;;;5156446;27;20339;-76
2022/01/08 14:05:59;;;;;;;;;;;7.10;99.90;;;;;;5155498;27;19911;-77
2022/01/08 14:08:25;;;;;;;;;;;7.10;99.90;;;;;;5156234;27;20410;-77
2022/01/08 14:10:54;;;;;;;;;;;7.10;99.90;;;;;;5155783;27;19907;-76
2022/01/08 14:13:23;;;;;;;;;;;7.10;99.90;;;;;;5156485;27;19907;-77
2022/01/08 14:15:57;;;;;;;;;;;7.10;99.90;;;;;;5146297;27;20409;-76
2022/01/08 14:18:26;;;;;;;;;;;7.00;99.90;;;;;;5141328;27;19920;-77
2022/01/08 14:20:52;;;;;;;;;;;6.90;99.90;;;;;;5140130;27;20416;-76
2022/01/08 14:23:20;;;;;;;;;;;6.90;99.90;;;;;;5141992;27;20363;-76
2022/01/08 14:25:46;;;;;;;;;;;6.90;99.90;;;;;;5136572;27;20006;-77
2022/01/08 14:28:16;;;;;;;;;;;6.90;99.90;;;;;;5148093;27;19946;-77
2022/01/08 14:30:42;;;;;;;;;;;6.90;99.90;;;;;;5156440;27;19929;-77
2022/01/08 14:33:07;;;;;;;;;;;6.80;99.90;;;;;;5155529;27;20343;-75
2022/01/08 14:35:33;;;;;;;;;;;6.70;99.90;;;;;;5156335;27;19907;-76
2022/01/08 14:38:02;;;;;;;;;;;6.70;99.90;;;;;;5141234;27;20010;-78
2022/01/08 14:40:28;;;;;;;;;;;6.70;99.90;;;;;;5138188;27;19911;-75
2022/01/08 14:42:56;;;;;;;;;;;6.70;99.90;;;;;;5139033;27;19920;-76
2022/01/08 14:45:21;;;;;;;;;;;6.60;99.90;;;;;;5135228;27;19915;-76
2022/01/08 14:47:47;;;;;;;;;;;6.60;99.90;;;;;;5136242;27;20006;-76
2022/01/08 14:50:15;;;;;;;;;;;6.50;99.90;;;;;;5155547;27;19927;-76
2022/01/08 14:52:42;;;;;;;;;;;6.50;99.90;;;;;;5121684;27;20070;-76
2022/01/08 14:55:09;;;;;;;;;;;6.50;99.90;;;;;;5134398;27;19907;-76
2022/01/08 14:57:35;;;;;;;;;;;6.40;99.90;;;;;;5134828;27;19952;-76